Time;durP1;ratioP1;P1;durP2;ratioP2;P2;SDS_P1;SDS_P2;PMS_P1;PMS_P2;Temp;Humidity;BMP_temperature;BMP_pressure;BME280_temperature;BME280_humidity;BME280_pressure;Samples;Min_cycle;Max_cycle;Signal;HPM_P1;HPM_P2
2023/09/06 00:03:14;;;;;;;1.50;1.17;;;;;;;18.53;100.00;98929.31;15283694;19;20054;-77
2023/09/06 00:08:41;;;;;;;2.10;1.20;;;;;;;18.44;100.00;98929.47;15284935;19;20094;-77
2023/09/06 00:14:06;;;;;;;1.45;1.10;;;;;;;18.37;100.00;98928.59;15286706;19;20011;-79
2023/09/06 00:19:38;;;;;;;1.67;1.13;;;;;;;18.28;100.00;98925.19;15288597;19;20028;-78
2023/09/06 00:25:07;;;;;;;1.90;1.17;;;;;;;18.21;100.00;98923.44;15290306;19;20011;-77
2023/09/06 00:30:32;;;;;;;1.63;1.05;;;;;;;18.12;100.00;98917.28;15290069;19;20002;-77
2023/09/06 00:35:57;;;;;;;1.60;1.10;;;;;;;18.04;100.00;98912.00;15290545;19;20033;-77
2023/09/06 00:41:25;;;;;;;2.15;1.20;;;;;;;17.96;100.00;98907.47;15295833;19;20062;-78
2023/09/06 00:46:50;;;;;;;1.20;1.10;;;;;;;17.89;100.00;98903.88;15286918;19;20054;-76
2023/09/06 00:52:16;;;;;;;1.35;1.00;;;;;;;17.86;100.00;98905.13;15286671;19;20544;-78
2023/09/06 00:57:45;;;;;;;1.25;1.15;;;;;;;17.85;100.00;98901.53;15288854;19;20508;-79
2023/09/06 01:03:11;;;;;;;1.63;1.10;;;;;;;17.83;100.00;98897.31;15293996;19;20394;-79
2023/09/06 01:08:40;;;;;;;2.08;1.27;;;;;;;17.83;100.00;98908.22;15298891;19;20011;-79
2023/09/06 01:14:09;;;;;;;2.55;1.20;;;;;;;17.80;100.00;98909.47;15293453;19;20035;-79
2023/09/06 01:19:42;;;;;;;2.90;1.20;;;;;;;17.77;100.00;98898.97;15291520;19;20015;-79
2023/09/06 01:25:11;;;;;;;1.20;1.10;;;;;;;17.74;100.00;98902.06;15289640;19;20015;-80
2023/09/06 01:30:38;;;;;;;1.27;1.17;;;;;;;17.67;100.00;98893.00;15296122;19;20015;-80
2023/09/06 01:36:04;;;;;;;1.70;1.20;;;;;;;17.61;100.00;98889.19;15285699;19;20035;-78
2023/09/06 01:41:31;;;;;;;2.72;1.30;;;;;;;17.54;100.00;98889.13;15296422;19;20528;-79
2023/09/06 01:46:56;;;;;;;1.30;1.20;;;;;;;17.47;100.00;98888.19;15293344;19;20018;-78
2023/09/06 01:52:21;;;;;;;1.20;1.10;;;;;;;17.38;100.00;98887.50;15298025;19;20472;-79
2023/09/06 01:57:48;;;;;;;1.67;1.30;;;;;;;17.32;100.00;98895.59;15294418;19;20521;-80
2023/09/06 02:03:15;;;;;;;1.55;1.20;;;;;;;17.23;100.00;98892.97;15299277;19;20600;-80
2023/09/06 02:08:46;;;;;;;1.40;1.27;;;;;;;17.17;100.00;98893.75;15294879;19;20597;-79
2023/09/06 02:20:13;;;;;;;1.90;1.27;;;;;;;17.01;100.00;98891.25;15345511;19;20018;-79
2023/09/06 02:25:37;;;;;;;1.95;1.25;;;;;;;16.94;100.00;98886.59;15280741;19;20470;-79
2023/09/06 02:31:02;;;;;;;3.35;1.10;;;;;;;16.95;100.00;98901.03;15279374;19;20466;-78
2023/09/06 02:36:30;;;;;;;1.63;1.20;;;;;;;16.95;100.00;98901.03;15280910;19;20026;-79
2023/09/06 02:41:55;;;;;;;4.30;1.30;;;;;;;16.92;100.00;98902.22;15282040;19;20529;-78
2023/09/06 02:47:25;;;;;;;1.10;1.00;;;;;;;16.91;100.00;98902.44;15283820;19;20516;-79
2023/09/06 02:52:56;;;;;;;2.50;1.20;;;;;;;16.87;100.00;98904.69;15288640;19;20046;-77
2023/09/06 02:58:23;;;;;;;1.55;1.42;;;;;;;16.87;100.00;98899.25;15289650;19;20039;-79
2023/09/06 03:03:47;;;;;;;1.50;1.40;;;;;;;16.83;100.00;98902.53;15281071;19;20056;-78
2023/09/06 03:09:15;;;;;;;1.67;1.27;;;;;;;16.79;100.00;98897.47;15284147;19;20405;-78
2023/09/06 03:14:43;;;;;;;1.50;1.40;;;;;;;16.77;100.00;98904.13;15286110;19;20101;-80
2023/09/06 03:20:32;;;;;;;1.80;1.25;;;;;;;16.73;100.00;98913.72;15294599;19;20016;-81
2023/09/06 03:26:09;;;;;;;1.42;1.25;;;;;;;16.72;100.00;98906.59;15342938;19;20011;-80
2023/09/06 03:31:42;;;;;;;2.13;1.30;;;;;;;16.69;100.00;98913.25;15291870;19;20086;-83
2023/09/06 03:37:08;;;;;;;2.08;1.40;;;;;;;16.64;100.00;98911.06;15286717;19;20006;-80
2023/09/06 03:42:36;;;;;;;1.50;1.25;;;;;;;16.61;100.00;98914.19;15290730;19;20013;-80
2023/09/06 03:48:01;;;;;;;1.45;1.23;;;;;;;16.60;100.00;98915.22;15290148;19;20025;-79
2023/09/06 03:53:26;;;;;;;1.92;1.30;;;;;;;16.61;100.00;98906.03;15298349;19;20014;-82
2023/09/06 03:58:57;;;;;;;2.65;1.38;;;;;;;16.58;100.00;98905.56;15292941;19;20010;-79
2023/09/06 04:04:25;;;;;;;1.45;1.13;;;;;;;16.50;100.00;98901.06;15294811;19;20017;-82
2023/09/06 04:09:56;;;;;;;2.15;1.25;;;;;;;16.41;100.00;98911.19;15300737;19;20018;-82
2023/09/06 04:15:24;;;;;;;2.55;1.60;;;;;;;16.40;100.00;98914.13;15290837;19;20493;-85
2023/09/06 04:20:59;;;;;;;1.73;1.40;;;;;;;16.37;100.00;98925.34;15300587;19;20062;-84
2023/09/06 04:26:27;;;;;;;2.72;1.20;;;;;;;16.18;100.00;98922.13;15290070;19;20736;-82
2023/09/06 04:31:56;;;;;;;2.75;1.50;;;;;;;15.99;100.00;98924.34;15291437;19;20011;-82
2023/09/06 04:37:22;;;;;;;1.42;1.33;;;;;;;15.81;100.00;98930.09;15288554;19;20006;-80
2023/09/06 04:42:47;;;;;;;1.45;1.35;;;;;;;15.63;100.00;98933.13;15292985;19;20010;-80
2023/09/06 04:48:17;;;;;;;1.88;1.50;;;;;;;15.49;100.00;98934.75;15289557;19;20051;-79
2023/09/06 04:53:45;;;;;;;2.40;1.55;;;;;;;15.37;100.00;98936.19;15293805;19;20025;-79
2023/09/06 04:59:16;;;;;;;2.13;1.50;;;;;;;15.29;100.00;98944.41;15291214;19;20050;-79
2023/09/06 05:04:43;;;;;;;2.35;1.60;;;;;;;15.21;100.00;98942.56;15290932;19;20042;-82
2023/09/06 05:10:10;;;;;;;5.05;1.50;;;;;;;15.14;100.00;98952.44;15294733;19;20011;-82
2023/09/06 05:15:36;;;;;;;1.50;1.40;;;;;;;15.05;100.00;98944.34;15286341;19;20446;-82
2023/09/06 05:21:05;;;;;;;1.77;1.52;;;;;;;15.01;100.00;98953.84;15284724;19;20035;-82
2023/09/06 05:26:31;;;;;;;3.30;1.40;;;;;;;14.95;100.00;98965.41;15289251;19;20685;-82
2023/09/06 05:31:57;;;;;;;2.28;1.30;;;;;;;14.95;100.00;98970.84;15298655;19;20010;-81
2023/09/06 05:37:25;;;;;;;1.83;1.40;;;;;;;14.94;100.00;98969.16;15292953;19;20014;-81
2023/09/06 05:42:51;;;;;;;2.20;1.50;;;;;;;14.95;100.00;98971.69;15310878;19;20029;-83
2023/09/06 05:48:18;;;;;;;4.18;1.30;;;;;;;14.99;100.00;98982.19;15298167;19;20023;-81
2023/09/06 05:53:45;;;;;;;4.25;1.67;;;;;;;15.03;100.00;98984.38;15293957;19;20007;-81
2023/09/06 05:59:13;;;;;;;1.70;1.40;;;;;;;15.06;100.00;98997.59;15290894;19;20025;-81
2023/09/06 06:04:39;;;;;;;4.28;1.50;;;;;;;15.14;100.00;98990.44;15293201;19;20018;-79
2023/09/06 06:10:09;;;;;;;7.72;1.65;;;;;;;15.20;100.00;98989.72;15318539;19;20026;-79
2023/09/06 06:15:35;;;;;;;4.70;1.42;;;;;;;15.29;100.00;98988.66;15325357;19;20492;-83
2023/09/06 06:21:06;;;;;;;2.63;1.55;;;;;;;15.39;100.00;98983.84;15280819;19;20015;-81
2023/09/06 06:26:34;;;;;;;7.95;1.75;;;;;;;15.52;100.00;98987.84;15276517;19;20017;-79
2023/09/06 06:32:00;;;;;;;2.58;1.45;;;;;;;15.63;100.00;98982.00;15282693;19;20077;-78
2023/09/06 06:37:26;;;;;;;1.90;1.60;;;;;;;15.78;100.00;98986.66;15284896;19;20010;-80
2023/09/06 06:42:54;;;;;;;1.45;1.30;;;;;;;15.92;100.00;98987.78;15287112;19;20010;-78
2023/09/06 06:48:20;;;;;;;6.43;1.50;;;;;;;16.05;100.00;98990.72;15281452;19;20046;-80
2023/09/06 06:53:45;;;;;;;3.20;1.40;;;;;;;16.20;100.00;98996.19;15284015;19;20018;-80
2023/09/06 06:59:12;;;;;;;2.42;1.30;;;;;;;16.40;100.00;98998.41;15275165;19;20018;-78
2023/09/06 07:04:37;;;;;;;4.40;1.60;;;;;;;16.58;100.00;99006.22;15283579;19;20490;-80
2023/09/06 07:10:02;;;;;;;1.52;1.23;;;;;;;16.77;100.00;98999.34;15287702;19;20014;-80
2023/09/06 07:15:30;;;;;;;3.38;1.50;;;;;;;17.00;100.00;99006.59;15275874;19;20470;-82
2023/09/06 07:21:01;;;;;;;1.60;1.30;;;;;;;17.18;100.00;99014.38;15271914;19;20799;-81
2023/09/06 07:26:27;;;;;;;2.00;1.50;;;;;;;17.38;100.00;99012.78;15277707;19;20019;-81
2023/09/06 07:31:55;;;;;;;2.85;1.40;;;;;;;17.62;100.00;99007.16;15296184;19;20011;-80
2023/09/06 07:37:20;;;;;;;1.98;1.40;;;;;;;17.87;100.00;99013.13;15293852;19;21380;-80
2023/09/06 07:42:46;;;;;;;1.92;1.40;;;;;;;18.02;100.00;99019.34;15299272;19;20038;-80
2023/09/06 07:48:14;;;;;;;2.05;1.40;;;;;;;18.28;100.00;99014.34;15298208;19;20016;-80
2023/09/06 07:53:39;;;;;;;1.83;1.30;;;;;;;18.43;100.00;99023.28;15293166;19;20039;-81
2023/09/06 07:59:12;;;;;;;3.08;1.40;;;;;;;18.59;100.00;99024.03;15292718;19;20035;-79
2023/09/06 08:04:40;;;;;;;1.48;1.20;;;;;;;18.83;100.00;99024.63;15287534;19;20026;-80
2023/09/06 08:10:00;;;;;;;2.33;1.30;;;;;;;19.07;100.00;99023.31;15297517;19;20018;-79
2023/09/06 08:15:25;;;;;;;1.90;1.27;;;;;;;19.28;100.00;99016.91;15294849;19;20010;-82
2023/09/06 08:20:53;;;;;;;1.88;1.17;;;;;;;19.49;100.00;99026.88;15291754;19;20078;-80
2023/09/06 08:26:18;;;;;;;1.45;1.10;;;;;;;19.70;100.00;99012.19;15288999;19;20103;-80
2023/09/06 08:31:43;;;;;;;2.78;1.50;;;;;;;19.92;100.00;99023.03;15290579;19;20018;-80
2023/09/06 08:37:11;;;;;;;4.05;1.58;;;;;;;20.13;100.00;99027.47;15282210;19;20017;-80
2023/09/06 08:42:39;;;;;;;5.43;1.47;;;;;;;20.30;100.00;99027.06;14816703;19;10000188;-82
2023/09/06 08:48:07;;;;;;;2.47;1.40;;;;;;;20.57;100.00;99033.38;15315451;19;20267;-81
2023/09/06 08:53:36;;;;;;;1.83;1.00;;;;;;;20.80;100.00;99029.38;15295440;19;20014;-81
2023/09/06 08:58:55;;;;;;;3.25;1.20;;;;;;;21.05;100.00;99031.44;15287926;19;20048;-82
2023/09/06 09:04:22;;;;;;;1.00;0.90;;;;;;;21.25;100.00;99024.00;15295135;19;20082;-83
2023/09/06 09:10:07;;;;;;;1.92;0.90;;;;;;;21.49;100.00;99015.25;15294451;19;20018;-80
2023/09/06 09:15:32;;;;;;;1.65;1.00;;;;;;;21.79;100.00;99020.19;15299092;19;20019;-81
2023/09/06 09:21:07;;;;;;;1.50;1.00;;;;;;;21.99;100.00;99020.06;15293249;19;20545;-81
2023/09/06 09:26:35;;;;;;;1.23;0.90;;;;;;;22.32;100.00;99018.97;15292382;19;20082;-80
2023/09/06 09:32:02;;;;;;;1.50;1.00;;;;;;;22.59;100.00;99019.63;15296189;19;20017;-82
2023/09/06 09:37:29;;;;;;;1.45;1.00;;;;;;;22.82;98.42;99014.56;15293122;19;20541;-82
2023/09/06 09:43:05;;;;;;;2.08;1.00;;;;;;;23.03;87.41;99010.53;15289471;19;20014;-79
2023/09/06 09:48:32;;;;;;;1.48;0.90;;;;;;;23.29;81.42;98997.56;15292688;19;20019;-80
2023/09/06 09:53:57;;;;;;;1.42;1.00;;;;;;;23.48;85.08;99001.13;15296702;19;20014;-80
2023/09/06 09:59:24;;;;;;;1.63;1.00;;;;;;;23.66;83.13;99006.59;15292591;19;20014;-80
2023/09/06 10:04:51;;;;;;;2.10;0.93;;;;;;;23.93;77.55;99005.38;15299644;19;20021;-80
2023/09/06 10:10:16;;;;;;;1.33;0.90;;;;;;;24.16;75.09;98999.13;15313717;19;20019;-78
2023/09/06 10:15:45;;;;;;;1.20;0.95;;;;;;;24.32;78.26;99003.13;15347511;19;20018;-80
2023/09/06 10:21:18;;;;;;;3.28;0.98;;;;;;;24.53;70.70;99000.84;15279073;19;20014;-80
2023/09/06 10:26:45;;;;;;;2.28;0.82;;;;;;;24.69;69.54;98997.41;15277301;19;20047;-80
2023/09/06 10:32:17;;;;;;;1.13;1.00;;;;;;;24.84;69.44;99002.44;15277421;19;20018;-79
2023/09/06 10:38:10;;;;;;;1.85;1.02;;;;;;;24.93;63.51;99003.75;15285125;19;20066;-80
2023/09/06 10:43:37;;;;;;;3.08;0.98;;;;;;;24.99;66.10;98996.44;15279886;19;20010;-80
2023/09/06 10:49:23;;;;;;;1.10;0.90;;;;;;;25.13;66.36;98999.75;15287936;19;20014;-79
2023/09/06 10:54:53;;;;;;;1.48;0.90;;;;;;;25.28;68.71;99002.03;15290389;19;20019;-81
2023/09/06 11:00:21;;;;;;;3.75;1.02;;;;;;;25.37;67.33;98991.41;15284419;19;20010;-80
2023/09/06 11:05:49;;;;;;;3.78;1.00;;;;;;;25.51;68.28;98990.09;15295226;19;20021;-80
2023/09/06 11:11:14;;;;;;;2.28;0.90;;;;;;;25.70;66.92;98984.34;15308648;19;20014;-80
2023/09/06 11:16:39;;;;;;;5.18;0.90;;;;;;;25.83;66.69;98984.06;15295482;19;20018;-80
2023/09/06 11:22:20;;;;;;;4.18;1.00;;;;;;;25.93;62.31;98975.13;15298716;19;20657;-80
2023/09/06 11:27:46;;;;;;;3.35;0.90;;;;;;;26.10;65.29;98974.38;15298262;19;20415;-79
2023/09/06 11:33:12;;;;;;;4.22;1.10;;;;;;;26.21;65.56;98973.44;15297596;19;20078;-79
2023/09/06 11:38:42;;;;;;;2.25;0.90;;;;;;;26.32;63.06;98971.66;15293334;19;20022;-80
2023/09/06 11:44:11;;;;;;;11.10;1.85;;;;;;;26.43;62.19;98976.25;15296614;19;20030;-80
2023/09/06 11:49:39;;;;;;;1.85;0.98;;;;;;;26.54;62.54;98951.56;15292342;19;20017;-78
2023/09/06 11:55:09;;;;;;;1.10;0.98;;;;;;;26.67;60.19;98956.72;15296022;19;20018;-81
2023/09/06 12:00:42;;;;;;;2.25;0.90;;;;;;;26.81;57.90;98957.25;15296629;19;20078;-80
2023/09/06 12:06:08;;;;;;;2.67;0.98;;;;;;;26.95;59.49;98954.09;15293480;19;20015;-80
2023/09/06 12:11:37;;;;;;;4.28;1.00;;;;;;;27.02;56.56;98952.81;15293665;19;20051;-79
2023/09/06 12:17:06;;;;;;;1.05;0.90;;;;;;;27.21;55.99;98949.75;15290361;19;20456;-78
2023/09/06 12:22:37;;;;;;;0.90;0.80;;;;;;;27.35;53.99;98944.63;15290111;19;20020;-79
2023/09/06 12:28:05;;;;;;;2.58;0.80;;;;;;;27.51;53.45;98943.75;15297051;19;20023;-80
2023/09/06 12:33:31;;;;;;;2.42;0.80;;;;;;;27.70;55.69;98940.63;15294723;19;20074;-77
2023/09/06 12:38:56;;;;;;;2.13;1.00;;;;;;;28.01;53.58;98937.28;15289000;19;20093;-80
2023/09/06 12:44:23;;;;;;;2.15;0.90;;;;;;;28.14;51.08;98934.13;15287265;19;20085;-77
2023/09/06 12:49:51;;;;;;;1.90;0.90;;;;;;;28.39;50.52;98935.41;15291899;19;20080;-80
2023/09/06 12:55:16;;;;;;;4.05;0.90;;;;;;;28.57;50.34;98931.38;15286686;19;20007;-79
2023/09/06 13:00:44;;;;;;;1.88;0.70;;;;;;;28.82;45.99;98922.38;15294938;19;20019;-78
2023/09/06 13:06:11;;;;;;;5.05;0.80;;;;;;;28.94;47.61;98924.09;15290464;19;20018;-79
2023/09/06 13:11:36;;;;;;;1.42;0.80;;;;;;;29.10;42.83;98917.53;15297081;19;20026;-79
2023/09/06 13:17:04;;;;;;;1.73;0.75;;;;;;;29.38;46.15;98912.63;15287369;19;20010;-80
2023/09/06 13:22:37;;;;;;;2.78;0.70;;;;;;;29.58;41.99;98905.47;15292714;19;20011;-82
2023/09/06 13:28:02;;;;;;;3.50;0.90;;;;;;;29.67;41.15;98907.41;15291706;19;20023;-76
2023/09/06 13:33:29;;;;;;;1.55;0.77;;;;;;;30.01;42.23;98897.75;15295249;19;20038;-79
2023/09/06 13:38:56;;;;;;;4.63;1.00;;;;;;;30.20;39.36;98897.16;15296172;19;20046;-80
2023/09/06 13:44:20;;;;;;;1.27;0.73;;;;;;;30.44;41.02;98905.75;15296669;19;20024;-80
2023/09/06 13:49:49;;;;;;;1.83;0.80;;;;;;;30.71;38.34;98899.03;15293440;19;20094;-81
2023/09/06 13:55:15;;;;;;;1.48;0.93;;;;;;;30.89;38.42;98901.22;15294994;19;20038;-79
2023/09/06 14:00:40;;;;;;;1.73;0.70;;;;;;;31.06;37.67;98894.44;15290445;19;20018;-79
2023/09/06 14:06:10;;;;;;;3.63;0.80;;;;;;;31.30;38.18;98893.78;15315322;19;20011;-77
2023/09/06 14:11:37;;;;;;;0.75;0.70;;;;;;;31.60;35.86;98883.59;15339714;19;20082;-80
2023/09/06 14:17:02;;;;;;;1.10;0.80;;;;;;;32.05;37.60;98878.81;15291983;19;20042;-79
2023/09/06 14:22:36;;;;;;;1.15;0.60;;;;;;;32.23;36.28;98877.25;15289271;19;20417;-79
2023/09/06 14:28:01;;;;;;;1.98;0.70;;;;;;;32.29;36.20;98875.25;15292593;19;20018;-78
2023/09/06 14:33:25;;;;;;;3.50;0.80;;;;;;;32.46;38.12;98874.81;15310277;19;20007;-79
2023/09/06 14:38:54;;;;;;;3.00;0.80;;;;;;;32.66;37.58;98858.94;15345022;19;20018;-79
2023/09/06 14:44:23;;;;;;;3.42;0.80;;;;;;;32.72;37.75;98864.19;15287247;19;20034;-79
2023/09/06 14:49:49;;;;;;;0.70;0.65;;;;;;;32.91;38.96;98857.00;15274959;19;20020;-77
2023/09/06 14:55:18;;;;;;;1.77;0.75;;;;;;;32.83;39.19;98853.75;15275436;19;20078;-79
2023/09/06 15:00:43;;;;;;;3.85;0.70;;;;;;;32.72;38.97;98853.00;15268699;19;20377;-78
2023/09/06 15:06:10;;;;;;;1.45;0.80;;;;;;;32.70;39.10;98851.66;15277069;19;20103;-78
2023/09/06 15:11:40;;;;;;;4.05;0.70;;;;;;;32.73;38.46;98853.88;15282432;19;20030;-78
2023/09/06 15:17:05;;;;;;;1.88;0.60;;;;;;;32.95;37.86;98858.06;15277966;19;20490;-80
2023/09/06 15:22:37;;;;;;;1.25;0.70;;;;;;;32.96;37.35;98856.94;15266852;19;20014;-79
2023/09/06 15:28:05;;;;;;;2.08;0.70;;;;;;;32.72;36.44;98849.41;15274864;19;20485;-80
2023/09/06 15:33:31;;;;;;;1.10;0.68;;;;;;;32.55;37.50;98850.72;15271248;19;20738;-80
2023/09/06 15:38:56;;;;;;;2.67;0.80;;;;;;;32.54;36.98;98854.63;15282635;19;20086;-79
2023/09/06 15:44:23;;;;;;;3.90;0.80;;;;;;;32.60;37.50;98851.78;15281618;19;20043;-78
2023/09/06 15:49:50;;;;;;;5.38;0.80;;;;;;;32.55;39.05;98861.88;15287089;19;20014;-80
2023/09/06 15:55:16;;;;;;;4.20;0.70;;;;;;;32.34;40.89;98854.84;15287657;19;20025;-78
2023/09/06 16:00:45;;;;;;;2.60;0.70;;;;;;;32.20;41.31;98852.72;15290268;19;20046;-79
2023/09/06 16:06:09;;;;;;;1.92;0.70;;;;;;;32.12;42.15;98859.78;15287708;19;20035;-77
2023/09/06 16:11:34;;;;;;;3.25;0.77;;;;;;;31.96;42.10;98859.09;15296762;19;20094;-80
2023/09/06 16:17:03;;;;;;;3.30;0.80;;;;;;;31.85;42.71;98854.72;15294930;19;20011;-79
2023/09/06 16:22:36;;;;;;;4.45;0.90;;;;;;;31.55;42.85;98855.78;15289219;19;20039;-78
2023/09/06 16:27:54;;;;;;;1.80;0.90;;;;;;;31.29;43.62;98859.56;15298171;19;20029;-78
2023/09/06 16:33:22;;;;;;;0.98;0.80;;;;;;;31.15;43.07;98858.53;15305976;19;20621;-78
2023/09/06 16:38:48;;;;;;;3.00;0.80;;;;;;;31.00;44.14;98854.69;15298526;19;20054;-78
2023/09/06 16:44:14;;;;;;;2.67;0.70;;;;;;;30.85;44.70;98855.59;15296798;19;20007;-78
2023/09/06 16:49:42;;;;;;;3.10;0.70;;;;;;;30.63;45.31;98858.75;15296163;19;20018;-78
2023/09/06 16:55:09;;;;;;;1.77;0.85;;;;;;;30.51;46.05;98861.81;15296629;19;20108;-78
2023/09/06 17:00:34;;;;;;;2.45;0.80;;;;;;;30.34;46.77;98851.03;15284358;19;20007;-78
2023/09/06 17:06:03;;;;;;;5.95;0.80;;;;;;;30.05;47.99;98862.72;15286511;19;20543;-77
2023/09/06 17:11:46;;;;;;;1.63;0.80;;;;;;;29.73;48.63;98858.28;15284438;19;20013;-79
2023/09/06 17:17:15;;;;;;;0.85;0.73;;;;;;;29.36;50.01;98859.34;15292107;19;20014;-81
2023/09/06 17:22:50;;;;;;;2.22;0.80;;;;;;;29.00;51.40;98851.75;15284299;19;20077;-81
2023/09/06 17:28:15;;;;;;;6.70;1.00;;;;;;;28.43;52.48;98858.94;15184994;19;2005667;-81
2023/09/06 17:33:40;;;;;;;3.80;0.88;;;;;;;27.99;53.12;98860.00;15289483;19;20369;-81
2023/09/06 17:39:09;;;;;;;2.50;0.90;;;;;;;27.51;54.88;98854.34;15291874;19;20074;-80
2023/09/06 17:44:35;;;;;;;1.73;1.10;;;;;;;26.93;56.67;98860.34;10694054;19;10001598;-82
2023/09/06 17:50:00;;;;;;;3.50;0.90;;;;;;;26.44;59.03;98861.91;15290538;19;20010;-83
2023/09/06 17:55:34;;;;;;;2.13;0.90;;;;;;;26.04;60.25;98865.72;15295550;19;20019;-80
2023/09/06 18:00:58;;;;;;;1.05;0.80;;;;;;;25.67;64.17;98863.47;15293389;19;20046;-80
2023/09/06 18:06:24;;;;;;;2.67;1.00;;;;;;;25.43;63.86;98871.03;15283375;19;20015;-78
2023/09/06 18:11:52;;;;;;;2.58;1.10;;;;;;;25.14;66.71;98871.03;15287735;19;20007;-79
2023/09/06 18:17:16;;;;;;;3.20;1.02;;;;;;;24.88;66.66;98874.09;15279661;19;20021;-80
2023/09/06 18:22:51;;;;;;;7.25;1.30;;;;;;;24.65;68.90;98874.13;15291485;19;20014;-79
2023/09/06 18:28:21;;;;;;;1.30;1.10;;;;;;;24.44;69.54;98876.44;15299733;19;20358;-81
2023/09/06 18:33:47;;;;;;;4.53;1.20;;;;;;;24.27;69.71;98879.06;15297231;19;20354;-80
2023/09/06 18:39:14;;;;;;;3.80;1.15;;;;;;;24.11;70.35;98881.47;15292814;19;20034;-82
2023/09/06 18:44:42;;;;;;;2.53;1.00;;;;;;;23.96;69.43;98889.38;15292354;19;20024;-79
2023/09/06 18:50:08;;;;;;;2.67;1.20;;;;;;;23.82;69.81;98891.44;15274253;19;20362;-78
2023/09/06 18:55:43;;;;;;;3.17;1.00;;;;;;;23.73;69.28;98892.88;15310796;19;20066;-80
2023/09/06 19:01:03;;;;;;;1.88;1.00;;;;;;;23.58;69.30;98899.66;15346004;19;20015;-80
2023/09/06 19:06:34;;;;;;;1.52;1.10;;;;;;;23.46;70.63;98898.81;15277293;19;20018;-78
2023/09/06 19:11:59;;;;;;;;;;;;;;;23.36;71.87;98896.59;15277821;19;20025;-80
2023/09/06 19:17:30;;;;;;;3.63;1.10;;;;;;;23.27;71.34;98893.34;15277533;19;19979;-79
2023/09/06 19:23:06;;;;;;;4.57;1.17;;;;;;;23.15;74.10;98903.41;15278488;19;20082;-80
2023/09/06 19:28:32;;;;;;;2.40;1.17;;;;;;;22.95;74.84;98899.03;15297980;19;20015;-79
2023/09/06 19:34:00;;;;;;;3.28;1.00;;;;;;;22.78;75.45;98894.13;15297305;19;20007;-80
2023/09/06 19:39:27;;;;;;;2.10;1.00;;;;;;;22.62;76.16;98895.59;15299876;19;20070;-80
2023/09/06 19:44:52;;;;;;;2.05;1.30;;;;;;;22.50;77.25;98891.91;15292951;19;20029;-79
2023/09/06 19:50:20;;;;;;;3.97;1.10;;;;;;;22.36;79.51;98893.09;15293117;19;20545;-81
2023/09/06 19:55:48;;;;;;;3.00;0.95;;;;;;;22.27;79.89;98901.63;15292858;19;20031;-80
2023/09/06 20:01:20;;;;;;;2.75;1.10;;;;;;;22.19;81.22;98906.56;15298334;19;20624;-82
2023/09/06 20:06:48;;;;;;;2.25;1.00;;;;;;;22.08;81.48;98917.19;15319646;19;20022;-79
2023/09/06 20:12:14;;;;;;;2.55;1.02;;;;;;;21.93;82.77;98916.72;15306623;19;20026;-78
2023/09/06 20:17:38;;;;;;;3.55;1.20;;;;;;;21.70;86.66;98905.28;15296052;19;20017;-79
2023/09/06 20:23:13;;;;;;;5.65;1.10;;;;;;;21.58;87.88;98914.41;15285058;19;20460;-78
2023/09/06 20:28:38;;;;;;;3.00;1.35;;;;;;;21.40;91.64;98916.81;15302241;19;20544;-79
2023/09/06 20:34:03;;;;;;;2.17;1.13;;;;;;;21.17;94.52;98917.38;15297493;19;20018;-79
2023/09/06 20:39:23;;;;;;;1.80;1.10;;;;;;;21.06;97.73;98916.16;15306452;19;20014;-81
2023/09/06 20:44:49;;;;;;;1.50;1.02;;;;;;;20.99;99.53;98920.00;15299571;19;20023;-81
2023/09/06 20:50:18;;;;;;;2.10;1.10;;;;;;;20.92;100.00;98926.31;15305448;19;20050;-81
2023/09/06 20:55:46;;;;;;;2.80;1.10;;;;;;;20.85;100.00;98919.19;15288784;19;20020;-80
2023/09/06 21:01:21;;;;;;;1.73;1.10;;;;;;;20.78;100.00;98924.69;15294328;19;20099;-79
2023/09/06 21:06:45;;;;;;;2.05;1.20;;;;;;;20.70;100.00;98924.91;15294018;19;20022;-80
2023/09/06 21:12:14;;;;;;;2.40;1.20;;;;;;;20.55;100.00;98925.16;15294577;19;20036;-78
2023/09/06 21:17:38;;;;;;;3.20;1.30;;;;;;;20.38;100.00;98924.78;15284407;19;20017;-78
2023/09/06 21:23:03;;;;;;;1.75;1.17;;;;;;;20.21;100.00;98919.72;15290089;19;20091;-78
2023/09/06 21:28:31;;;;;;;5.22;1.20;;;;;;;20.06;100.00;98922.69;15288203;19;20093;-80
2023/09/06 21:33:56;;;;;;;2.42;1.33;;;;;;;20.02;100.00;98922.28;15289274;19;20006;-79
2023/09/06 21:39:20;;;;;;;3.35;1.20;;;;;;;19.96;100.00;98927.75;15294548;19;20021;-79
2023/09/06 21:44:49;;;;;;;1.30;1.15;;;;;;;19.88;100.00;98930.66;15292996;19;20014;-77
2023/09/06 21:50:13;;;;;;;3.10;1.20;;;;;;;19.82;100.00;98930.44;15285487;19;20011;-78
2023/09/06 21:55:38;;;;;;;1.33;1.23;;;;;;;19.76;100.00;98938.63;15285643;19;20010;-77
2023/09/06 22:01:05;;;;;;;1.55;1.20;;;;;;;19.70;100.00;98941.13;15286034;19;20014;-77
2023/09/06 22:06:49;;;;;;;1.33;1.10;;;;;;;19.64;100.00;98950.16;15289768;19;20015;-78
2023/09/06 22:12:32;;;;;;;2.17;1.13;;;;;;;19.56;100.00;98947.63;15294293;19;20007;-78
2023/09/06 22:18:00;;;;;;;2.63;1.25;;;;;;;19.52;100.00;98951.81;15293854;19;20039;-79
2023/09/06 22:23:32;;;;;;;2.13;1.17;;;;;;;19.42;100.00;98948.66;15285477;19;20028;-79
2023/09/06 22:28:56;;;;;;;1.67;1.20;;;;;;;19.34;100.00;98942.34;15291878;19;20024;-79
2023/09/06 22:34:24;;;;;;;1.45;1.10;;;;;;;19.26;100.00;98950.69;15284324;19;20434;-78
2023/09/06 22:39:49;;;;;;;2.15;1.10;;;;;;;19.21;100.00;98955.94;15288471;19;20035;-79
2023/09/06 22:45:15;;;;;;;1.90;1.40;;;;;;;19.16;100.00;98956.56;15285810;19;20473;-79
2023/09/06 22:50:42;;;;;;;2.75;1.40;;;;;;;19.13;100.00;98947.91;15291536;19;20018;-78
2023/09/06 22:56:07;;;;;;;2.72;1.23;;;;;;;19.06;100.00;98950.59;15279311;19;20006;-77
2023/09/06 23:01:31;;;;;;;1.52;1.40;;;;;;;18.97;100.00;98963.63;15285312;19;20018;-76
2023/09/06 23:06:59;;;;;;;1.23;1.05;;;;;;;18.88;100.00;98964.78;15305319;19;20018;-76
2023/09/06 23:12:27;;;;;;;1.30;1.20;;;;;;;18.83;100.00;98956.38;15341515;19;20780;-77
2023/09/06 23:17:52;;;;;;;1.52;1.20;;;;;;;18.74;100.00;98959.28;15278522;19;20015;-77
2023/09/06 23:23:28;;;;;;;1.65;1.20;;;;;;;18.66;100.00;98961.31;15272538;19;20029;-76
2023/09/06 23:28:48;;;;;;;2.22;1.25;;;;;;;18.55;100.00;98965.44;15271727;19;20611;-76
2023/09/06 23:34:18;;;;;;;1.75;1.30;;;;;;;18.42;100.00;98969.75;15277333;19;20028;-78
2023/09/06 23:39:47;;;;;;;3.30;1.20;;;;;;;18.31;100.00;98953.94;15273805;19;20416;-77
2023/09/06 23:45:12;;;;;;;1.30;1.20;;;;;;;18.22;100.00;98953.25;15279102;19;20011;-78
2023/09/06 23:50:37;;;;;;;3.53;1.50;;;;;;;18.12;100.00;98956.31;15283320;19;20011;-77
2023/09/06 23:56:06;;;;;;;2.40;1.38;;;;;;;18.10;100.00;98955.66;15276182;19;20520;-77
